Impacts TAF Board INFO
FOR SITUATIONAL AWARENESS. NOT TO BE USED FOR FLIGHT PLANNING PURPOSES.
IDs:

KPHX - Phoenix/Sky Harbor, AZ, US

Issued at 2320 UTC 25 Feb 2018
Updated at 0142 UTC 26 Feb 2018
Potential Impact None Slight Moderate High
Time0051Z 26/02Z 26/03Z 26/04Z 26/05Z 26/06Z 26/07Z 26/08Z 26/09Z 26/10Z 26/11Z 26/12Z 26/13Z 26/14Z>>
Type OBS PRVL PRVL PRVL PRVL PRVL PRVL PRVL PRVL PRVL PRVL PRVL PRVL PRVL
VIS 10 >6 >6 >6 >6 >6 >6 >6 >6 >6 >6 >6 >6 >6
CIG -- -- -- -- -- -- -- -- -- -- -- -- -- --
Cover CLR SKC SKC SKC SKC SKC SKC SKC SKC SKC SKC SKC SKC SKC
FltCat VFR VFR VFR VFR VFR VFR VFR VFR VFR VFR VFR VFR VFR VFR
WX -- -- -- -- -- -- -- -- -- -- -- -- -- --
WDir VRB 280 280 280 280 100 100 100 100 100 100 100 100 100
WSpd 0 5 5 5 5 5 5 5 5 5 5 5 5 5
WGst -- -- -- -- -- -- -- -- -- -- -- -- -- --

Raw TAF
KPHX 252320Z 2600/2706 28005KT P6SM SKC
  FM260600 10005KT P6SM SKC
  FM262100 25005KT P6SM SKC


Raw METAR
KPHX 260051Z 00000KT 10SM CLR 17/M12 A3010 RMK AO2 SLP189 T01671122 $
KPHX 252351Z 29005KT 10SM CLR 17/M12 A3011 RMK AO2 SLP190 T01721122 10178 20111 56016 $
KPHX 252251Z VRB05KT 10SM CLR 17/M12 A3012 RMK AO2 SLP193 T01721117 $

METAR Board
Radar Display
Forecast Discussion

FOR SITUATIONAL AWARENESS. NOT TO BE USED FOR FLIGHT PLANNING PURPOSES.